Centennial, Colorado
Current Conditions -  °F | °C
As of 10:58 AM on Thursday 29 Jan 2015 (Local Time) from KBKF Reporting Station
Overcast Overcast  
Wind Chill: 39°   Ceiling: 5000
Heat Index: 39°   Visibility: 10mi
Dew Point: 24°   Wind: 1mph
Humidity: 54%   Direction: NA
Pressure: 30.51"   Gusts: NA
Location:  39.6608°N, 104.835°W
Report Text: KBKF 291758Z VRB01KT 10SM BKN050 BKN110 OVC220 04/M05 A3051 RMK AO2A SLP330 T00381047 10038 20005 50005
Loading
Personal Weather Stations






























Interactive Weather Map New forecast layout! Learn more

10-Day Weather Forecast

Advertisements
Track Severe Weather on mobile